^^
Meteo Knjazevac Station Historical Data
Daily Summary for February 23, 2021 Units:  Metric    English   Both
Daily Weekly Monthly Yearly Custom
  High: Low: Average:
Temperature: 17.2 °C 14.2 °C 15.6 °C
Dew Point: 12.3 °C 10.8 °C 11.4 °C
Humidity: 80% 73% 77%
Wind Speed: 3.2km/h 0km/h 1.1km/h
Wind Gust: 6.4km/h - -
Wind- - West
Pressure: 1019.5 hPa 1019.2 hPa -
Precipitation: 0 mm    
Historical Graphs
 
 
Tabular Data for February 23, 2021
Time Temperature Dew Point Pressure Wind Wind Speed Wind Gust Humidity Rainfall Rate (Hourly) solar Conditions
00:00 17.2 °C 12.3 °C 1019.2 hPa Calm   4.8 km/h 73% 0 mm 0 W/m2
00:10 17.1 °C 12.2 °C 1019.5 hPa West 1.6 km/h 3.2 km/h 73% 0 mm 0 W/m2
00:20 16.9 °C 12 °C 1019.5 hPa West 1.6 km/h 3.2 km/h 73% 0 mm 0 W/m2
00:30 16.6 °C 11.9 °C 1019.5 hPa West 1.6 km/h 4.8 km/h 74% 0 mm 0 W/m2
00:40 16.4 °C 11.8 °C 1019.5 hPa West 3.2 km/h 6.4 km/h 74% 0 mm 0 W/m2
00:50 16.2 °C 11.6 °C 1019.5 hPa West 3.2 km/h 6.4 km/h 74% 0 mm 0 W/m2
01:00 16.1 °C 11.7 °C 1019.5 hPa West 3.2 km/h 6.4 km/h 75% 0 mm 0 W/m2
01:10 16 °C 11.6 °C 1019.5 hPa West 1.6 km/h 4.8 km/h 75% 0 mm 0 W/m2
01:20 15.8 °C 11.4 °C 1019.5 hPa WNW 1.6 km/h 3.2 km/h 75% 0 mm 0 W/m2
01:30 15.6 °C 11.6 °C 1019.5 hPa Calm   3.2 km/h 77% 0 mm 0 W/m2
01:40 15.5 °C 11.5 °C 1019.5 hPa Calm   3.2 km/h 77% 0 mm 0 W/m2
01:50 15.4 °C 11.4 °C 1019.5 hPa Calm   3.2 km/h 77% 0 mm 0 W/m2
02:00 15.3 °C 11.5 °C 1019.5 hPa Calm   3.2 km/h 78% 0 mm 0 W/m2
02:10 15.1 °C 11.3 °C 1019.2 hPa Calm   3.2 km/h 78% 0 mm 0 W/m2
02:20 14.9 °C 11.1 °C 1019.5 hPa Calm   3.2 km/h 78% 0 mm 0 W/m2
02:30 14.7 °C 11.1 °C 1019.5 hPa Calm   3.2 km/h 79% 0 mm 0 W/m2
02:40 14.4 °C 10.8 °C 1019.5 hPa WSW 1.6 km/h 3.2 km/h 79% 0 mm 0 W/m2
02:50 14.3 °C 10.9 °C 1019.5 hPa West 1.6 km/h 4.8 km/h 80% 0 mm 0 W/m2
03:00 14.2 °C 10.8 °C 1019.5 hPa Calm   4.8 km/h 80% 0 mm 0 W/m2
03:10 14.2 °C 10.8 °C 1019.5 hPa Calm   4.8 km/h 80% 0 mm 0 W/m2
Knjazevac, Serbia
Compliments of Weather Underground - 2 mb